Main page
METAR-TAF:

METAR-TAF

Airports :

Pécs-Pogány International Airport

Pécs, Hungary

latitude: 46-06N, longitude: 018-14E, elevation: 201 m

Current weather observation

The report was made 32 minutes ago, at 07:15 UTC
Wind 7 kt from the North
Temperature 16°C
Humidity 51%
Pressure 1030 hPa
Visibility 10 km or more
no clouds below 1500 m and no cumulonimbus

METAR: LHPP 190715Z 01007KT CAVOK 16/06 Q1030

Time: 09:47 (07:47 UTC)

Forecast

The report was made 2 hours and 32 minutes ago, at 05:15 UTC
Forecast valid from 19 at 06 UTC to 19 at 15 UTC
Wind 5 kt from the North
Visibility 10 km or more
no clouds below 1500 m and no cumulonimbus
Temporary
from 19 at 08 UTC to 19 at 12 UTC
Few clouds at a height of 4000 ft
Scattered clouds at a height of 10000 ft

TAF: LHPP 190515Z 1906/1915 36005KT CAVOK TEMPO 1908/1912 FEW040 SCT100

Weather observations and forecasts of more than 4000 airports (METAR and TAF reports).

The available stations are represented by yellow and red dots on the map.

Hover mouse over dot to see the name of the station.

Then click to see weather observations and forecasts.

To change the map : click on the green buttons with a black cross to zoom in, on the green button with a dash to zoom out, or on the green arrows for adjacent maps.


METAR-TAF: